sensor_id;sensor_type;location;lat;lon;timestamp;temperature;humidity
21616;DHT22;10970;48.714;9.584;2023-01-29T00:01:53;0.80;99.90
21616;DHT22;10970;48.714;9.584;2023-01-29T00:04:18;0.80;99.90
21616;DHT22;10970;48.714;9.584;2023-01-29T00:06:45;0.80;99.90
21616;DHT22;10970;48.714;9.584;2023-01-29T00:09:11;0.80;99.90
21616;DHT22;10970;48.714;9.584;2023-01-29T00:11:38;0.80;99.90
21616;DHT22;10970;48.714;9.584;2023-01-29T00:14:04;0.80;99.90
21616;DHT22;10970;48.714;9.584;2023-01-29T00:16:29;0.80;99.90
21616;DHT22;10970;48.714;9.584;2023-01-29T00:18:55;0.80;99.90
21616;DHT22;10970;48.714;9.584;2023-01-29T00:21:21;0.70;99.90
21616;DHT22;10970;48.714;9.584;2023-01-29T00:23:48;0.70;99.90
21616;DHT22;10970;48.714;9.584;2023-01-29T00:26:14;0.70;99.90
21616;DHT22;10970;48.714;9.584;2023-01-29T00:28:40;0.70;99.90
21616;DHT22;10970;48.714;9.584;2023-01-29T00:31:16;0.70;99.90
21616;DHT22;10970;48.714;9.584;2023-01-29T00:33:42;0.80;99.90
21616;DHT22;10970;48.714;9.584;2023-01-29T00:36:10;0.80;99.90
21616;DHT22;10970;48.714;9.584;2023-01-29T00:38:38;0.80;99.90
21616;DHT22;10970;48.714;9.584;2023-01-29T00:41:08;0.80;99.90
21616;DHT22;10970;48.714;9.584;2023-01-29T00:43:53;0.80;99.90
21616;DHT22;10970;48.714;9.584;2023-01-29T00:46:38;0.70;99.90
21616;DHT22;10970;48.714;9.584;2023-01-29T00:49:04;0.80;99.90
21616;DHT22;10970;48.714;9.584;2023-01-29T00:51:30;0.80;99.90
21616;DHT22;10970;48.714;9.584;2023-01-29T00:53:56;0.80;99.90
21616;DHT22;10970;48.714;9.584;2023-01-29T00:56:26;0.80;99.90
21616;DHT22;10970;48.714;9.584;2023-01-29T00:58:52;0.80;99.90
21616;DHT22;10970;48.714;9.584;2023-01-29T01:01:19;0.70;99.90
21616;DHT22;10970;48.714;9.584;2023-01-29T01:04:05;0.70;99.90
21616;DHT22;10970;48.714;9.584;2023-01-29T01:06:31;0.60;99.90
21616;DHT22;10970;48.714;9.584;2023-01-29T01:08:57;0.70;99.90
21616;DHT22;10970;48.714;9.584;2023-01-29T01:11:41;0.70;99.90
21616;DHT22;10970;48.714;9.584;2023-01-29T01:14:07;0.90;99.90
21616;DHT22;10970;48.714;9.584;2023-01-29T01:16:32;0.70;99.90
21616;DHT22;10970;48.714;9.584;2023-01-29T01:18:58;0.80;99.90
21616;DHT22;10970;48.714;9.584;2023-01-29T01:21:24;0.80;99.90
21616;DHT22;10970;48.714;9.584;2023-01-29T01:23:49;0.80;99.90
21616;DHT22;10970;48.714;9.584;2023-01-29T01:26:16;0.80;99.90
21616;DHT22;10970;48.714;9.584;2023-01-29T01:28:42;0.80;99.90
21616;DHT22;10970;48.714;9.584;2023-01-29T01:31:12;0.70;99.90
21616;DHT22;10970;48.714;9.584;2023-01-29T01:33:38;0.70;99.90
21616;DHT22;10970;48.714;9.584;2023-01-29T01:36:05;0.70;99.90
21616;DHT22;10970;48.714;9.584;2023-01-29T01:38:37;0.70;99.90
21616;DHT22;10970;48.714;9.584;2023-01-29T01:41:19;0.60;99.90
21616;DHT22;10970;48.714;9.584;2023-01-29T01:44:03;0.60;99.90
21616;DHT22;10970;48.714;9.584;2023-01-29T01:46:36;0.50;99.90
21616;DHT22;10970;48.714;9.584;2023-01-29T01:49:15;0.60;99.90
21616;DHT22;10970;48.714;9.584;2023-01-29T01:51:45;0.60;99.90
21616;DHT22;10970;48.714;9.584;2023-01-29T01:54:17;0.60;99.90
21616;DHT22;10970;48.714;9.584;2023-01-29T01:56:48;0.60;99.90
21616;DHT22;10970;48.714;9.584;2023-01-29T01:59:17;0.60;99.90
21616;DHT22;10970;48.714;9.584;2023-01-29T02:01:46;0.70;99.90
21616;DHT22;10970;48.714;9.584;2023-01-29T02:04:25;0.60;99.90
21616;DHT22;10970;48.714;9.584;2023-01-29T02:07:12;0.70;99.90
21616;DHT22;10970;48.714;9.584;2023-01-29T02:10:13;0.70;99.90
21616;DHT22;10970;48.714;9.584;2023-01-29T02:12:40;0.60;99.90
21616;DHT22;10970;48.714;9.584;2023-01-29T02:15:06;0.60;99.90
21616;DHT22;10970;48.714;9.584;2023-01-29T02:17:32;0.60;99.90
21616;DHT22;10970;48.714;9.584;2023-01-29T02:20:23;0.60;99.90
21616;DHT22;10970;48.714;9.584;2023-01-29T02:28:35;0.70;99.90
21616;DHT22;10970;48.714;9.584;2023-01-29T02:37:04;0.60;99.90
21616;DHT22;10970;48.714;9.584;2023-01-29T02:39:45;0.60;99.90
21616;DHT22;10970;48.714;9.584;2023-01-29T02:42:37;0.50;99.90
21616;DHT22;10970;48.714;9.584;2023-01-29T02:45:27;0.60;99.90
21616;DHT22;10970;48.714;9.584;2023-01-29T02:47:59;0.50;99.90
21616;DHT22;10970;48.714;9.584;2023-01-29T02:50:44;0.50;99.90
21616;DHT22;10970;48.714;9.584;2023-01-29T02:53:16;0.60;99.90
21616;DHT22;10970;48.714;9.584;2023-01-29T02:55:55;0.60;99.90
21616;DHT22;10970;48.714;9.584;2023-01-29T03:01:04;0.60;99.90
21616;DHT22;10970;48.714;9.584;2023-01-29T03:03:39;0.60;99.90
21616;DHT22;10970;48.714;9.584;2023-01-29T03:06:17;0.60;99.90
21616;DHT22;10970;48.714;9.584;2023-01-29T03:08:59;0.60;99.90
21616;DHT22;10970;48.714;9.584;2023-01-29T03:11:34;0.60;99.90
21616;DHT22;10970;48.714;9.584;2023-01-29T03:14:25;0.50;99.90
21616;DHT22;10970;48.714;9.584;2023-01-29T03:17:15;0.60;99.90
21616;DHT22;10970;48.714;9.584;2023-01-29T03:19:42;0.60;99.90
21616;DHT22;10970;48.714;9.584;2023-01-29T03:22:10;0.60;99.90
21616;DHT22;10970;48.714;9.584;2023-01-29T03:24:45;0.60;99.90
21616;DHT22;10970;48.714;9.584;2023-01-29T03:27:36;0.60;99.90
21616;DHT22;10970;48.714;9.584;2023-01-29T03:30:24;0.60;99.90
21616;DHT22;10970;48.714;9.584;2023-01-29T03:33:11;0.70;99.90
21616;DHT22;10970;48.714;9.584;2023-01-29T03:36:06;0.60;99.90
21616;DHT22;10970;48.714;9.584;2023-01-29T03:38:33;0.60;99.90
21616;DHT22;10970;48.714;9.584;2023-01-29T03:41:07;0.70;99.90
21616;DHT22;10970;48.714;9.584;2023-01-29T03:46:47;0.80;99.90
21616;DHT22;10970;48.714;9.584;2023-01-29T03:49:27;0.70;99.90
21616;DHT22;10970;48.714;9.584;2023-01-29T03:52:00;0.70;99.90
21616;DHT22;10970;48.714;9.584;2023-01-29T03:54:53;0.70;99.90
21616;DHT22;10970;48.714;9.584;2023-01-29T04:03:34;0.70;99.90
21616;DHT22;10970;48.714;9.584;2023-01-29T04:05:41;0.70;99.90
21616;DHT22;10970;48.714;9.584;2023-01-29T04:08:11;0.70;99.90
21616;DHT22;10970;48.714;9.584;2023-01-29T04:10:40;0.70;99.90
21616;DHT22;10970;48.714;9.584;2023-01-29T04:13:10;0.70;99.90
21616;DHT22;10970;48.714;9.584;2023-01-29T04:15:43;0.70;99.90
21616;DHT22;10970;48.714;9.584;2023-01-29T04:18:10;0.70;99.90
21616;DHT22;10970;48.714;9.584;2023-01-29T04:20:36;0.70;99.90
21616;DHT22;10970;48.714;9.584;2023-01-29T04:23:05;0.80;99.90
21616;DHT22;10970;48.714;9.584;2023-01-29T04:25:40;0.70;99.90
21616;DHT22;10970;48.714;9.584;2023-01-29T04:28:25;0.70;99.90
21616;DHT22;10970;48.714;9.584;2023-01-29T04:50:02;0.80;99.90
21616;DHT22;10970;48.714;9.584;2023-01-29T04:55:44;0.80;99.90
21616;DHT22;10970;48.714;9.584;2023-01-29T05:00:40;0.80;99.90
21616;DHT22;10970;48.714;9.584;2023-01-29T05:03:06;0.80;99.90
21616;DHT22;10970;48.714;9.584;2023-01-29T05:05:34;0.70;99.90
21616;DHT22;10970;48.714;9.584;2023-01-29T05:08:02;0.70;99.90
21616;DHT22;10970;48.714;9.584;2023-01-29T05:10:29;0.70;99.90
21616;DHT22;10970;48.714;9.584;2023-01-29T05:13:00;0.80;99.90
21616;DHT22;10970;48.714;9.584;2023-01-29T05:16:32;0.70;99.90
21616;DHT22;10970;48.714;9.584;2023-01-29T05:18:25;0.70;99.90
21616;DHT22;10970;48.714;9.584;2023-01-29T05:20:52;0.80;99.90
21616;DHT22;10970;48.714;9.584;2023-01-29T05:23:21;0.70;99.90
21616;DHT22;10970;48.714;9.584;2023-01-29T05:25:48;0.70;99.90
21616;DHT22;10970;48.714;9.584;2023-01-29T05:28:14;0.80;99.90
21616;DHT22;10970;48.714;9.584;2023-01-29T05:30:48;0.80;99.90
21616;DHT22;10970;48.714;9.584;2023-01-29T05:33:29;0.80;99.90
21616;DHT22;10970;48.714;9.584;2023-01-29T05:35:57;0.80;99.90
21616;DHT22;10970;48.714;9.584;2023-01-29T05:38:23;0.80;99.90
21616;DHT22;10970;48.714;9.584;2023-01-29T05:40:49;0.70;99.90
21616;DHT22;10970;48.714;9.584;2023-01-29T05:43:17;0.70;99.90
21616;DHT22;10970;48.714;9.584;2023-01-29T05:45:50;0.80;99.90
21616;DHT22;10970;48.714;9.584;2023-01-29T05:48:16;0.80;99.90
21616;DHT22;10970;48.714;9.584;2023-01-29T05:50:41;0.80;99.90
21616;DHT22;10970;48.714;9.584;2023-01-29T05:53:08;0.90;99.90
21616;DHT22;10970;48.714;9.584;2023-01-29T05:55:33;0.80;99.90
21616;DHT22;10970;48.714;9.584;2023-01-29T05:57:59;0.80;99.90
21616;DHT22;10970;48.714;9.584;2023-01-29T06:00:25;0.80;99.90
21616;DHT22;10970;48.714;9.584;2023-01-29T06:02:50;0.80;99.90
21616;DHT22;10970;48.714;9.584;2023-01-29T06:05:16;0.80;99.90
21616;DHT22;10970;48.714;9.584;2023-01-29T06:07:42;0.80;99.90
21616;DHT22;10970;48.714;9.584;2023-01-29T06:10:12;0.80;99.90
21616;DHT22;10970;48.714;9.584;2023-01-29T06:12:38;0.70;99.90
21616;DHT22;10970;48.714;9.584;2023-01-29T06:15:04;0.70;99.90
21616;DHT22;10970;48.714;9.584;2023-01-29T06:17:30;0.70;99.90
21616;DHT22;10970;48.714;9.584;2023-01-29T06:19:55;0.70;99.90
21616;DHT22;10970;48.714;9.584;2023-01-29T06:22:21;0.70;99.90
21616;DHT22;10970;48.714;9.584;2023-01-29T06:24:47;0.70;99.90
21616;DHT22;10970;48.714;9.584;2023-01-29T06:27:12;0.60;99.90
21616;DHT22;10970;48.714;9.584;2023-01-29T06:29:38;0.60;99.90
21616;DHT22;10970;48.714;9.584;2023-01-29T06:32:04;0.60;99.90
21616;DHT22;10970;48.714;9.584;2023-01-29T06:34:29;0.70;99.90
21616;DHT22;10970;48.714;9.584;2023-01-29T06:36:55;0.70;99.90
21616;DHT22;10970;48.714;9.584;2023-01-29T06:39:20;0.70;99.90
21616;DHT22;10970;48.714;9.584;2023-01-29T06:41:46;0.80;99.90
21616;DHT22;10970;48.714;9.584;2023-01-29T06:44:12;0.80;99.90
21616;DHT22;10970;48.714;9.584;2023-01-29T06:46:37;0.80;99.90
21616;DHT22;10970;48.714;9.584;2023-01-29T06:49:03;0.90;99.90
21616;DHT22;10970;48.714;9.584;2023-01-29T06:51:29;0.90;99.90
21616;DHT22;10970;48.714;9.584;2023-01-29T06:53:54;0.90;99.90
21616;DHT22;10970;48.714;9.584;2023-01-29T06:56:21;0.80;99.90
21616;DHT22;10970;48.714;9.584;2023-01-29T06:58:47;0.80;99.90
21616;DHT22;10970;48.714;9.584;2023-01-29T07:01:13;0.80;99.90
21616;DHT22;10970;48.714;9.584;2023-01-29T07:03:39;0.70;99.90
21616;DHT22;10970;48.714;9.584;2023-01-29T07:06:06;0.70;99.90
21616;DHT22;10970;48.714;9.584;2023-01-29T07:08:36;0.60;99.90
21616;DHT22;10970;48.714;9.584;2023-01-29T07:11:02;0.60;99.90
21616;DHT22;10970;48.714;9.584;2023-01-29T07:13:28;0.70;99.90
21616;DHT22;10970;48.714;9.584;2023-01-29T07:15:57;0.70;99.90
21616;DHT22;10970;48.714;9.584;2023-01-29T07:18:23;0.70;99.90
21616;DHT22;10970;48.714;9.584;2023-01-29T07:20:49;0.80;99.90
21616;DHT22;10970;48.714;9.584;2023-01-29T07:23:14;0.80;99.90
21616;DHT22;10970;48.714;9.584;2023-01-29T07:25:41;0.90;99.90
21616;DHT22;10970;48.714;9.584;2023-01-29T07:28:07;0.90;99.90
21616;DHT22;10970;48.714;9.584;2023-01-29T07:30:34;0.90;99.90
21616;DHT22;10970;48.714;9.584;2023-01-29T07:33:04;0.90;99.90
21616;DHT22;10970;48.714;9.584;2023-01-29T07:35:36;0.80;99.90
21616;DHT22;10970;48.714;9.584;2023-01-29T07:38:01;0.90;99.90
21616;DHT22;10970;48.714;9.584;2023-01-29T07:40:27;0.70;99.90
21616;DHT22;10970;48.714;9.584;2023-01-29T07:43:03;0.70;99.90
21616;DHT22;10970;48.714;9.584;2023-01-29T07:45:30;0.70;99.90
21616;DHT22;10970;48.714;9.584;2023-01-29T07:47:57;0.70;99.90
21616;DHT22;10970;48.714;9.584;2023-01-29T07:50:24;0.70;99.90
21616;DHT22;10970;48.714;9.584;2023-01-29T07:52:50;0.70;99.90
21616;DHT22;10970;48.714;9.584;2023-01-29T07:55:16;0.70;99.90
21616;DHT22;10970;48.714;9.584;2023-01-29T07:57:43;0.70;99.90
21616;DHT22;10970;48.714;9.584;2023-01-29T08:00:09;0.70;99.90
21616;DHT22;10970;48.714;9.584;2023-01-29T08:02:36;0.70;99.90
21616;DHT22;10970;48.714;9.584;2023-01-29T08:05:02;0.80;99.90
21616;DHT22;10970;48.714;9.584;2023-01-29T08:07:28;0.90;99.90
21616;DHT22;10970;48.714;9.584;2023-01-29T08:09:54;1.00;99.90
21616;DHT22;10970;48.714;9.584;2023-01-29T08:12:19;1.00;99.90
21616;DHT22;10970;48.714;9.584;2023-01-29T08:14:45;1.00;99.90
21616;DHT22;10970;48.714;9.584;2023-01-29T08:17:11;1.00;99.90
21616;DHT22;10970;48.714;9.584;2023-01-29T08:19:37;0.90;99.90
21616;DHT22;10970;48.714;9.584;2023-01-29T08:22:03;0.90;99.90
21616;DHT22;10970;48.714;9.584;2023-01-29T08:24:29;0.90;99.90
21616;DHT22;10970;48.714;9.584;2023-01-29T08:26:55;0.90;99.90
21616;DHT22;10970;48.714;9.584;2023-01-29T08:29:20;0.80;99.90
21616;DHT22;10970;48.714;9.584;2023-01-29T08:31:46;0.80;99.90
21616;DHT22;10970;48.714;9.584;2023-01-29T08:34:12;0.80;99.90
21616;DHT22;10970;48.714;9.584;2023-01-29T08:36:37;0.90;99.90
21616;DHT22;10970;48.714;9.584;2023-01-29T08:39:03;0.90;99.90
21616;DHT22;10970;48.714;9.584;2023-01-29T08:41:28;1.00;99.90
21616;DHT22;10970;48.714;9.584;2023-01-29T08:43:55;1.00;99.90
21616;DHT22;10970;48.714;9.584;2023-01-29T08:46:22;1.10;99.90
21616;DHT22;10970;48.714;9.584;2023-01-29T08:48:48;1.00;99.90
21616;DHT22;10970;48.714;9.584;2023-01-29T08:51:13;1.00;99.90
21616;DHT22;10970;48.714;9.584;2023-01-29T08:53:39;1.00;99.90
21616;DHT22;10970;48.714;9.584;2023-01-29T08:56:05;1.00;99.90
21616;DHT22;10970;48.714;9.584;2023-01-29T08:58:31;1.00;99.90
21616;DHT22;10970;48.714;9.584;2023-01-29T09:01:05;1.00;99.90
21616;DHT22;10970;48.714;9.584;2023-01-29T09:03:31;1.00;99.90
21616;DHT22;10970;48.714;9.584;2023-01-29T09:05:56;1.20;99.90
21616;DHT22;10970;48.714;9.584;2023-01-29T09:08:22;1.30;99.90
21616;DHT22;10970;48.714;9.584;2023-01-29T09:10:47;1.30;99.90
21616;DHT22;10970;48.714;9.584;2023-01-29T09:13:13;1.30;99.90
21616;DHT22;10970;48.714;9.584;2023-01-29T09:15:39;1.30;99.90
21616;DHT22;10970;48.714;9.584;2023-01-29T09:18:04;1.40;99.90
21616;DHT22;10970;48.714;9.584;2023-01-29T09:20:30;1.30;99.90
21616;DHT22;10970;48.714;9.584;2023-01-29T09:22:56;1.30;99.90
21616;DHT22;10970;48.714;9.584;2023-01-29T09:25:23;1.40;99.90
21616;DHT22;10970;48.714;9.584;2023-01-29T09:27:49;1.30;99.90
21616;DHT22;10970;48.714;9.584;2023-01-29T09:30:15;1.30;99.90
21616;DHT22;10970;48.714;9.584;2023-01-29T09:32:41;1.30;99.90
21616;DHT22;10970;48.714;9.584;2023-01-29T09:35:07;1.40;99.90
21616;DHT22;10970;48.714;9.584;2023-01-29T09:37:33;1.50;99.90
21616;DHT22;10970;48.714;9.584;2023-01-29T09:39:59;1.60;99.90
21616;DHT22;10970;48.714;9.584;2023-01-29T09:42:39;1.60;99.90
21616;DHT22;10970;48.714;9.584;2023-01-29T09:45:12;1.70;99.90
21616;DHT22;10970;48.714;9.584;2023-01-29T09:47:40;1.80;99.90
21616;DHT22;10970;48.714;9.584;2023-01-29T09:50:11;1.80;99.90
21616;DHT22;10970;48.714;9.584;2023-01-29T09:52:52;1.60;99.90
21616;DHT22;10970;48.714;9.584;2023-01-29T09:58:13;1.40;99.90
21616;DHT22;10970;48.714;9.584;2023-01-29T10:21:34;2.00;99.90
21616;DHT22;10970;48.714;9.584;2023-01-29T10:24:15;2.10;99.90
21616;DHT22;10970;48.714;9.584;2023-01-29T10:26:45;2.30;99.90
21616;DHT22;10970;48.714;9.584;2023-01-29T10:29:17;2.50;99.90
21616;DHT22;10970;48.714;9.584;2023-01-29T10:31:43;2.70;99.90
21616;DHT22;10970;48.714;9.584;2023-01-29T10:36:49;3.10;99.90
21616;DHT22;10970;48.714;9.584;2023-01-29T10:39:20;3.00;99.90
21616;DHT22;10970;48.714;9.584;2023-01-29T10:45:01;2.80;99.90
21616;DHT22;10970;48.714;9.584;2023-01-29T10:47:44;3.00;99.90
21616;DHT22;10970;48.714;9.584;2023-01-29T10:58:26;3.00;99.90
21616;DHT22;10970;48.714;9.584;2023-01-29T11:00:54;3.00;99.90
21616;DHT22;10970;48.714;9.584;2023-01-29T11:03:28;3.10;99.90
21616;DHT22;10970;48.714;9.584;2023-01-29T11:06:21;3.00;99.90
21616;DHT22;10970;48.714;9.584;2023-01-29T11:09:18;2.90;99.90
21616;DHT22;10970;48.714;9.584;2023-01-29T11:12:04;2.90;99.90
21616;DHT22;10970;48.714;9.584;2023-01-29T11:17:37;2.60;99.90
21616;DHT22;10970;48.714;9.584;2023-01-29T11:20:05;2.50;99.90
21616;DHT22;10970;48.714;9.584;2023-01-29T11:22:53;2.40;99.90
21616;DHT22;10970;48.714;9.584;2023-01-29T11:25:20;2.20;99.90
21616;DHT22;10970;48.714;9.584;2023-01-29T11:27:53;2.10;99.90
21616;DHT22;10970;48.714;9.584;2023-01-29T11:32:49;2.20;99.90
21616;DHT22;10970;48.714;9.584;2023-01-29T11:37:45;2.40;99.90
21616;DHT22;10970;48.714;9.584;2023-01-29T11:42:43;2.40;99.90
21616;DHT22;10970;48.714;9.584;2023-01-29T11:45:29;2.40;99.90
21616;DHT22;10970;48.714;9.584;2023-01-29T11:47:58;2.40;99.90
21616;DHT22;10970;48.714;9.584;2023-01-29T11:50:32;2.30;99.90
21616;DHT22;10970;48.714;9.584;2023-01-29T11:52:58;2.40;99.90
21616;DHT22;10970;48.714;9.584;2023-01-29T11:55:29;2.50;99.90
21616;DHT22;10970;48.714;9.584;2023-01-29T11:58:19;2.30;99.90
21616;DHT22;10970;48.714;9.584;2023-01-29T12:00:48;2.60;99.90
21616;DHT22;10970;48.714;9.584;2023-01-29T12:03:15;2.60;99.90
21616;DHT22;10970;48.714;9.584;2023-01-29T12:05:57;2.60;99.90
21616;DHT22;10970;48.714;9.584;2023-01-29T12:08:24;2.50;99.90
21616;DHT22;10970;48.714;9.584;2023-01-29T12:11:13;2.60;99.90
21616;DHT22;10970;48.714;9.584;2023-01-29T12:13:41;2.60;99.90
21616;DHT22;10970;48.714;9.584;2023-01-29T12:16:21;2.50;99.90
21616;DHT22;10970;48.714;9.584;2023-01-29T12:21:54;2.50;99.90
21616;DHT22;10970;48.714;9.584;2023-01-29T12:27:14;2.70;99.90
21616;DHT22;10970;48.714;9.584;2023-01-29T12:30:08;2.80;99.90
21616;DHT22;10970;48.714;9.584;2023-01-29T12:32:47;2.70;99.90
21616;DHT22;10970;48.714;9.584;2023-01-29T12:40:22;3.00;99.90
21616;DHT22;10970;48.714;9.584;2023-01-29T12:42:52;2.90;99.90
21616;DHT22;10970;48.714;9.584;2023-01-29T12:45:24;3.00;99.90
21616;DHT22;10970;48.714;9.584;2023-01-29T12:47:54;3.30;99.90
21616;DHT22;10970;48.714;9.584;2023-01-29T12:50:34;3.20;99.90
21616;DHT22;10970;48.714;9.584;2023-01-29T12:55:46;3.30;99.90
21616;DHT22;10970;48.714;9.584;2023-01-29T13:00:48;3.20;99.90
21616;DHT22;10970;48.714;9.584;2023-01-29T13:03:20;3.30;99.90
21616;DHT22;10970;48.714;9.584;2023-01-29T13:05:55;3.30;99.90
21616;DHT22;10970;48.714;9.584;2023-01-29T13:08:26;3.30;99.90
21616;DHT22;10970;48.714;9.584;2023-01-29T13:10:54;3.20;99.90
21616;DHT22;10970;48.714;9.584;2023-01-29T13:13:37;3.20;99.90
21616;DHT22;10970;48.714;9.584;2023-01-29T13:16:11;3.30;99.90
21616;DHT22;10970;48.714;9.584;2023-01-29T13:18:48;3.20;99.90
21616;DHT22;10970;48.714;9.584;2023-01-29T13:21:22;3.20;99.90
21616;DHT22;10970;48.714;9.584;2023-01-29T13:23:54;3.20;99.90
21616;DHT22;10970;48.714;9.584;2023-01-29T13:26:20;3.20;99.90
21616;DHT22;10970;48.714;9.584;2023-01-29T13:28:47;3.20;99.90
21616;DHT22;10970;48.714;9.584;2023-01-29T13:31:24;3.20;99.90
21616;DHT22;10970;48.714;9.584;2023-01-29T13:36:56;3.10;99.90
21616;DHT22;10970;48.714;9.584;2023-01-29T13:39:26;3.00;99.90
21616;DHT22;10970;48.714;9.584;2023-01-29T13:41:54;3.10;99.90
21616;DHT22;10970;48.714;9.584;2023-01-29T13:44:25;3.10;99.90
21616;DHT22;10970;48.714;9.584;2023-01-29T13:46:58;3.20;99.90
21616;DHT22;10970;48.714;9.584;2023-01-29T13:49:39;3.10;99.90
21616;DHT22;10970;48.714;9.584;2023-01-29T13:54:41;3.10;99.90
21616;DHT22;10970;48.714;9.584;2023-01-29T14:02:46;3.00;99.90
21616;DHT22;10970;48.714;9.584;2023-01-29T14:10:33;3.20;99.90
21616;DHT22;10970;48.714;9.584;2023-01-29T14:15:44;3.20;99.90
21616;DHT22;10970;48.714;9.584;2023-01-29T14:23:30;2.90;99.90
21616;DHT22;10970;48.714;9.584;2023-01-29T14:25:58;2.80;99.90
21616;DHT22;10970;48.714;9.584;2023-01-29T14:28:30;2.90;99.90
21616;DHT22;10970;48.714;9.584;2023-01-29T14:30:57;2.90;99.90
21616;DHT22;10970;48.714;9.584;2023-01-29T14:33:39;2.90;99.90
21616;DHT22;10970;48.714;9.584;2023-01-29T14:36:09;2.80;99.90
21616;DHT22;10970;48.714;9.584;2023-01-29T14:38:37;2.90;99.90
21616;DHT22;10970;48.714;9.584;2023-01-29T14:41:17;2.90;99.90
21616;DHT22;10970;48.714;9.584;2023-01-29T14:43:45;2.90;99.90
21616;DHT22;10970;48.714;9.584;2023-01-29T14:48:59;2.80;99.90
21616;DHT22;10970;48.714;9.584;2023-01-29T14:51:26;2.90;99.90
21616;DHT22;10970;48.714;9.584;2023-01-29T14:54:00;2.80;99.90
21616;DHT22;10970;48.714;9.584;2023-01-29T14:56:33;2.70;99.90
21616;DHT22;10970;48.714;9.584;2023-01-29T15:01:39;2.50;99.90
21616;DHT22;10970;48.714;9.584;2023-01-29T15:06:47;2.50;99.90
21616;DHT22;10970;48.714;9.584;2023-01-29T15:09:15;2.40;99.90
21616;DHT22;10970;48.714;9.584;2023-01-29T15:11:59;2.40;99.90
21616;DHT22;10970;48.714;9.584;2023-01-29T15:14:32;2.30;99.90
21616;DHT22;10970;48.714;9.584;2023-01-29T15:17:29;2.30;99.90
21616;DHT22;10970;48.714;9.584;2023-01-29T15:19:57;2.20;99.90
21616;DHT22;10970;48.714;9.584;2023-01-29T15:22:23;2.20;99.90
21616;DHT22;10970;48.714;9.584;2023-01-29T15:25:12;2.30;99.90
21616;DHT22;10970;48.714;9.584;2023-01-29T15:27:42;2.30;99.90
21616;DHT22;10970;48.714;9.584;2023-01-29T15:30:17;2.30;99.90
21616;DHT22;10970;48.714;9.584;2023-01-29T15:32:44;2.10;99.90
21616;DHT22;10970;48.714;9.584;2023-01-29T15:35:20;2.10;99.90
21616;DHT22;10970;48.714;9.584;2023-01-29T15:38:19;2.00;99.90
21616;DHT22;10970;48.714;9.584;2023-01-29T15:40:56;2.00;99.90
21616;DHT22;10970;48.714;9.584;2023-01-29T15:43:36;2.00;99.90
21616;DHT22;10970;48.714;9.584;2023-01-29T15:46:15;1.90;99.90
21616;DHT22;10970;48.714;9.584;2023-01-29T15:48:43;1.90;99.90
21616;DHT22;10970;48.714;9.584;2023-01-29T15:51:16;1.80;99.90
21616;DHT22;10970;48.714;9.584;2023-01-29T15:54:02;1.80;99.90
21616;DHT22;10970;48.714;9.584;2023-01-29T15:56:37;1.70;99.90
21616;DHT22;10970;48.714;9.584;2023-01-29T15:59:06;1.60;99.90
21616;DHT22;10970;48.714;9.584;2023-01-29T16:01:33;1.60;99.90
21616;DHT22;10970;48.714;9.584;2023-01-29T16:03:59;1.50;99.90
21616;DHT22;10970;48.714;9.584;2023-01-29T16:06:39;1.40;99.90
21616;DHT22;10970;48.714;9.584;2023-01-29T16:09:06;1.40;99.90
21616;DHT22;10970;48.714;9.584;2023-01-29T16:11:33;1.30;99.90
21616;DHT22;10970;48.714;9.584;2023-01-29T16:14:00;1.20;99.90
21616;DHT22;10970;48.714;9.584;2023-01-29T16:16:27;1.20;99.90
21616;DHT22;10970;48.714;9.584;2023-01-29T16:18:53;1.10;99.90
21616;DHT22;10970;48.714;9.584;2023-01-29T16:21:36;1.10;99.90
21616;DHT22;10970;48.714;9.584;2023-01-29T16:24:09;1.10;99.90
21616;DHT22;10970;48.714;9.584;2023-01-29T16:26:43;1.00;99.90
21616;DHT22;10970;48.714;9.584;2023-01-29T16:29:13;1.00;99.90
21616;DHT22;10970;48.714;9.584;2023-01-29T16:31:42;0.90;99.90
21616;DHT22;10970;48.714;9.584;2023-01-29T16:34:35;0.90;99.90
21616;DHT22;10970;48.714;9.584;2023-01-29T16:37:04;0.80;99.90
21616;DHT22;10970;48.714;9.584;2023-01-29T16:39:37;0.80;99.90
21616;DHT22;10970;48.714;9.584;2023-01-29T16:47:20;0.60;99.90
21616;DHT22;10970;48.714;9.584;2023-01-29T16:49:54;0.60;99.90
21616;DHT22;10970;48.714;9.584;2023-01-29T16:52:29;0.50;99.90
21616;DHT22;10970;48.714;9.584;2023-01-29T16:55:01;0.50;99.90
21616;DHT22;10970;48.714;9.584;2023-01-29T16:57:39;0.40;99.90
21616;DHT22;10970;48.714;9.584;2023-01-29T17:00:07;0.40;99.90
21616;DHT22;10970;48.714;9.584;2023-01-29T17:02:38;0.40;99.90
21616;DHT22;10970;48.714;9.584;2023-01-29T17:05:08;0.30;99.90
21616;DHT22;10970;48.714;9.584;2023-01-29T17:07:35;0.30;99.90
21616;DHT22;10970;48.714;9.584;2023-01-29T17:10:04;0.30;99.90
21616;DHT22;10970;48.714;9.584;2023-01-29T17:12:31;0.20;99.90
21616;DHT22;10970;48.714;9.584;2023-01-29T17:17:34;0.20;99.90
21616;DHT22;10970;48.714;9.584;2023-01-29T17:20:15;0.10;99.90
21616;DHT22;10970;48.714;9.584;2023-01-29T17:22:41;0.10;99.90
21616;DHT22;10970;48.714;9.584;2023-01-29T17:25:12;0.00;99.90
21616;DHT22;10970;48.714;9.584;2023-01-29T17:27:41;0.00;99.90
21616;DHT22;10970;48.714;9.584;2023-01-29T17:30:17;0.00;99.90
21616;DHT22;10970;48.714;9.584;2023-01-29T17:32:43;-0.10;99.90
21616;DHT22;10970;48.714;9.584;2023-01-29T17:35:13;-0.20;99.90
21616;DHT22;10970;48.714;9.584;2023-01-29T17:37:39;-0.20;99.90
21616;DHT22;10970;48.714;9.584;2023-01-29T17:42:54;-0.30;99.90
21616;DHT22;10970;48.714;9.584;2023-01-29T17:45:19;-0.30;99.90
21616;DHT22;10970;48.714;9.584;2023-01-29T17:47:45;-0.40;99.90
21616;DHT22;10970;48.714;9.584;2023-01-29T17:50:37;-0.50;99.90
21616;DHT22;10970;48.714;9.584;2023-01-29T17:53:03;-0.50;99.90
21616;DHT22;10970;48.714;9.584;2023-01-29T17:55:29;-0.50;99.90
21616;DHT22;10970;48.714;9.584;2023-01-29T17:57:55;-0.50;99.90
21616;DHT22;10970;48.714;9.584;2023-01-29T18:00:22;-0.60;99.90
21616;DHT22;10970;48.714;9.584;2023-01-29T18:02:48;-0.70;99.90
21616;DHT22;10970;48.714;9.584;2023-01-29T18:05:15;-0.70;99.90
21616;DHT22;10970;48.714;9.584;2023-01-29T18:07:43;-0.70;99.90
21616;DHT22;10970;48.714;9.584;2023-01-29T18:10:15;-0.80;99.90
21616;DHT22;10970;48.714;9.584;2023-01-29T18:12:42;-0.80;99.90
21616;DHT22;10970;48.714;9.584;2023-01-29T18:15:08;-0.80;99.90
21616;DHT22;10970;48.714;9.584;2023-01-29T18:17:35;-0.90;99.90
21616;DHT22;10970;48.714;9.584;2023-01-29T18:20:01;-0.90;99.90
21616;DHT22;10970;48.714;9.584;2023-01-29T18:22:27;-1.00;99.90
21616;DHT22;10970;48.714;9.584;2023-01-29T18:24:53;-0.90;99.90
21616;DHT22;10970;48.714;9.584;2023-01-29T18:27:18;-1.00;99.90
21616;DHT22;10970;48.714;9.584;2023-01-29T18:29:44;-1.00;99.90
21616;DHT22;10970;48.714;9.584;2023-01-29T18:32:10;-0.90;99.90
21616;DHT22;10970;48.714;9.584;2023-01-29T18:34:36;-1.00;99.90
21616;DHT22;10970;48.714;9.584;2023-01-29T18:37:02;-1.00;99.90
21616;DHT22;10970;48.714;9.584;2023-01-29T18:39:28;-1.10;99.90
21616;DHT22;10970;48.714;9.584;2023-01-29T18:41:54;-1.00;99.90
21616;DHT22;10970;48.714;9.584;2023-01-29T18:44:19;-1.10;99.90